Αρχική σελίδα
METAR-TAF:

METAR-TAF

Αεροδρόμια :

Trapani, Ιταλία

γεωγραφικό πλάτος: 37-55N, γεωγραφικό μήκος: 012-30E, υψόμετρο: 7 μ

Παρών καιρός

Η αναφορά έγινε 25 λεπτά πριν, στις 17:55 UTC
Άνεμος 2 kt από Α/BA
Θερμοκρασία 13°C
Υγρασία 94%
Πίεση 1009 hPa
Ορατότητα 10 χλμ και άνω
Λίγα νέφη σε ύψος 2500 πόδια

METAR: LICT 181755Z 06002KT 9999 FEW025 13/12 Q1009 RMK SCT SCT100 VIS MIN 9999 WIND THR13 05002KT BLU

Χρόνος: 19:20 (18:20 UTC)

Πρόγνωση Καιρού

Η αναφορά έγινε 1 ώρα και 20 λεπτά πριν, στις 17:00 UTC
Η πρόγνωση ισχύει από τις 18 στις 18 UTC έως τις 19 στις 03 UTC
Άνεμος 6 kt από Β/BA
Ορατότητα 10 χλμ και άνω
Διάσπαρτα νέφη σε ύψος 2000 πόδια

TAF: LICT 181700Z 1818/1903 03006KT 9999 SCT020

Μετεωρολογικές αναφορές και προγνώσεις για περισσότερα από 4000 αεροδρόμια (δελτία METAR και TAF).

Οι διαθέσιμοι σταθμοί απεικονίζονται στο χάρτη με κίτρινες και κόκκινες κουκκίδες.

Μετακινήστε το ποντίκι πάνω από τις κουκκίδες για να δείτε το όνομα του σταθμού.

Στη συνέχεια, κάντε κλικ για να δείτε τις μετεωρολογικές αναφορές και τις προγνώσεις καιρού.

Για να αλλάξετε το χάρτη: κάντε κλικ στα πράσινα κουμπιά με τον μαύρο σταυρό για να ζουμάρετε, στο πράσινο κουμπί με την παύλα για να αφαιρέσετε το ζουμ ή στα πράσινα βέλη για να αντιπαραβάλλετε χάρτες.


METAR-TAF: